Unionville, VA (22567)

3:07 AM EST on February 28, 2015 (GMT -0500)
Fox Run Drive | Change Station
CLOSE
Current Station
Personal Weather Station
Location: Spotsylvania, VA
Elevation: 495 ft
Nearby Weather Stations

Elev 495 ft 38.21 °N, 77.83 °W | Updated 1 minute ago

Clear
Clear
17.6 °F
Feels Like 18 °F
N
0.0
Wind Variable Wind from NE

Today
High -- | Low -- °F
--% Chance of Precip.
Yesterday
High -- | Low -- °F
Precip. -- in
6:45 AM 6:03 PM
Waxing Gibbous, 75% visible
Pressure 30.71 in
Visibility 10.0 miles
Clouds Clear
Windchill 18 °F
Dew Point 4 °F
Humidity 55%
Rainfall 0.00 in
Snow Depth Not available.
UV 0 out of 12
Pollen .40 out of 12
Air Quality Not available.
Flu Activity Not available.
METAR KOMH 280755Z AUTO 00000KT 10SM CLR M07/M15 A3071 RMK AO2

More Conditions Fewer Conditions

Pressure 30.71 in
Visibility 10.0 miles
Clouds Clear
Windchill 18 °F
Dew Point 4 °F
Humidity 55%
Rainfall 0.00 in
Snow Depth Not available.
UV 0 out of 12
Pollen .40 out of 12
Air Quality Not available.
Flu Activity Not available.
METAR KOMH 280755Z AUTO 00000KT 10SM CLR M07/M15 A3071 RMK AO2

More Conditions Fewer Conditions

10-Day Weather Forecast

Almanac

Astronomy

Feb. 28, 2015 Rise Set
Actual Time
Civil Twilight
Nautical Twilight
Astronomical Twilight
Moon
Length of Visible Light
Length of Day
Tomorrow will be .
, % of the Moon is Illuminated

Today's Extremes

State Highs State Lows

Community

WunderPhotos

Upload Photos

1,800,984 photos uploaded!

WunderBlogs® & News

Nearby

Air Quality

  Air Quality AQ Index Pollutant
Not available.

Snow Depth

Station Depth Elevation

Earthquake Activity

City Distance Mag. Time & Date
Minimum magnitude displayed is 2.5.

Coastal Water Temperatures

Place Temperature

Nearby Weather Stations